Lake Zurich, Illinois
Current Conditions -  °F | °C
As of 12:52 PM on Friday 28 Nov 2014 (Local Time) from KPWK Reporting Station
Overcast Overcast  
Wind Chill: 18°   Ceiling: 12000
Heat Index: 29°   Visibility: 10mi
Dew Point: 17°   Wind: 15mph
Humidity: 61%   Direction: 170°S
Pressure: 30.07"   Gusts: NA
Location:  42.2°N, 88.09°W
Report Text: KPWK 281852Z 17013KT 10SM OVC120 M02/M08 A3007 RMK AO2 SLP194 T10171083
Loading
Personal Weather Stations






























Interactive Weather Map New forecast layout! Learn more

10-Day Weather Forecast

Advertisements
Track Severe Weather on mobile